Time;durP1;ratioP1;P1;durP2;ratioP2;P2;SDS_P1;SDS_P2;PMS_P1;PMS_P2;Temp;Humidity;BMP_temperature;BMP_pressure;BME280_temperature;BME280_humidity;BME280_pressure;Samples;Min_cycle;Max_cycle;Signal;HPM_P1;HPM_P2
2023/06/08 00:01:04;;;;;;;10.55;6.05;;;;;;;;;;5025201;28;20274;-70
2023/06/08 00:03:30;;;;;;;8.73;6.47;;;;;;;;;;5030081;28;20528;-70
2023/06/08 00:05:58;;;;;;;13.30;6.88;;;;;;;;;;5028679;28;20181;-70
2023/06/08 00:08:25;;;;;;;14.90;6.38;;;;;;;;;;5021736;28;20221;-70
2023/06/08 00:10:51;;;;;;;15.75;6.05;;;;;;;;;;5019286;28;20692;-71
2023/06/08 00:13:17;;;;;;;13.32;6.57;;;;;;;;;;5025768;28;20229;-71
2023/06/08 00:15:42;;;;;;;11.32;6.25;;;;;;;;;;5028504;28;20178;-71
2023/06/08 00:18:08;;;;;;;11.50;7.07;;;;;;;;;;5023439;28;20253;-71
2023/06/08 00:20:34;;;;;;;16.13;5.63;;;;;;;;;;5026470;28;20249;-71
2023/06/08 00:23:00;;;;;;;10.50;6.20;;;;;;;;;;5024856;28;20659;-70
2023/06/08 00:25:25;;;;;;;12.45;6.07;;;;;;;;;;5025872;28;20182;-70
2023/06/08 00:27:51;;;;;;;12.70;6.43;;;;;;;;;;5028413;28;20651;-70
2023/06/08 00:30:16;;;;;;;12.93;6.40;;;;;;;;;;5033711;28;20630;-70
2023/06/08 00:32:41;;;;;;;16.33;6.13;;;;;;;;;;5017373;28;20268;-70
2023/06/08 00:35:07;;;;;;;13.68;6.55;;;;;;;;;;5019407;28;20179;-70
2023/06/08 00:37:32;;;;;;;21.25;7.93;;;;;;;;;;5016996;28;20206;-70
2023/06/08 00:39:57;;;;;;;13.65;7.13;;;;;;;;;;5028316;28;20240;-70
2023/06/08 00:42:22;;;;;;;13.57;7.07;;;;;;;;;;5023796;28;20325;-70
2023/06/08 00:44:48;;;;;;;14.68;6.35;;;;;;;;;;5026130;28;20217;-70
2023/06/08 00:47:13;;;;;;;9.15;5.90;;;;;;;;;;5020505;28;20198;-70
2023/06/08 00:49:38;;;;;;;13.10;6.97;;;;;;;;;;5018923;28;20719;-70
2023/06/08 00:52:03;;;;;;;13.55;6.93;;;;;;;;;;5026292;28;20178;-70
2023/06/08 00:54:30;;;;;;;15.73;6.85;;;;;;;;;;5012504;28;20185;-70
2023/06/08 00:57:00;;;;;;;13.48;7.05;;;;;;;;;;5020093;28;20186;-70
2023/06/08 00:59:26;;;;;;;16.75;7.65;;;;;;;;;;5016956;28;20272;-70
2023/06/08 01:01:51;;;;;;;11.20;6.97;;;;;;;;;;5024766;28;20174;-70
2023/06/08 01:04:16;;;;;;;15.82;6.80;;;;;;;;;;5017694;28;20182;-70
2023/06/08 01:06:45;;;;;;;11.30;6.95;;;;;;;;;;5022725;28;20660;-70
2023/06/08 01:09:23;;;;;;;12.40;6.22;;;;;;;;;;5015337;28;20500;-70
2023/06/08 01:11:54;;;;;;;17.02;7.50;;;;;;;;;;5021981;28;20183;-70
2023/06/08 01:14:26;;;;;;;13.02;6.85;;;;;;;;;;5023142;28;20229;-70
2023/06/08 01:16:54;;;;;;;11.23;6.80;;;;;;;;;;5022878;28;20174;-70
2023/06/08 01:19:33;;;;;;;16.70;7.32;;;;;;;;;;5026475;28;20246;-70
2023/06/08 01:22:17;;;;;;;11.50;6.78;;;;;;;;;;5017602;28;20167;-70
2023/06/08 01:24:49;;;;;;;13.38;7.20;;;;;;;;;;5017152;28;20264;-70
2023/06/08 01:27:15;;;;;;;17.08;6.57;;;;;;;;;;5017639;28;20182;-70
2023/06/08 01:29:41;;;;;;;12.90;6.78;;;;;;;;;;5025497;28;20269;-70
2023/06/08 01:32:07;;;;;;;15.88;6.90;;;;;;;;;;5026448;28;20174;-71
2023/06/08 01:34:32;;;;;;;15.07;7.25;;;;;;;;;;5020951;28;20185;-71
2023/06/08 01:37:02;;;;;;;14.48;7.18;;;;;;;;;;5018913;28;20257;-71
2023/06/08 01:39:47;;;;;;;16.67;6.97;;;;;;;;;;5021768;28;20205;-71
2023/06/08 01:42:14;;;;;;;10.75;6.13;;;;;;;;;;5023342;28;20190;-70
2023/06/08 01:44:45;;;;;;;17.00;7.80;;;;;;;;;;5025650;28;20221;-70
2023/06/08 01:47:12;;;;;;;11.82;6.95;;;;;;;;;;5019641;28;20245;-70
2023/06/08 01:49:37;;;;;;;14.57;7.30;;;;;;;;;;5018958;28;20199;-70
2023/06/08 01:52:03;;;;;;;16.30;7.87;;;;;;;;;;5026803;28;20251;-71
2023/06/08 01:54:28;;;;;;;11.60;7.10;;;;;;;;;;5029616;28;20178;-71
2023/06/08 01:56:53;;;;;;;13.43;6.63;;;;;;;;;;5029640;28;20198;-71
2023/06/08 01:59:18;;;;;;;16.95;7.47;;;;;;;;;;5030237;28;20211;-71
2023/06/08 02:01:44;;;;;;;10.68;6.75;;;;;;;;;;5031340;28;20181;-71
2023/06/08 02:04:09;;;;;;;16.75;7.85;;;;;;;;;;5019662;28;20232;-71
2023/06/08 02:06:35;;;;;;;12.25;6.97;;;;;;;;;;5020897;28;20266;-71
2023/06/08 02:09:00;;;;;;;16.60;7.43;;;;;;;;;;5024731;28;20675;-71
2023/06/08 02:11:26;;;;;;;19.17;8.87;;;;;;;;;;5031104;28;20198;-71
2023/06/08 02:13:51;;;;;;;14.38;7.88;;;;;;;;;;5021979;28;20206;-71
2023/06/08 02:16:18;;;;;;;25.90;8.80;;;;;;;;;;5030651;28;20174;-71
2023/06/08 02:18:44;;;;;;;19.83;8.20;;;;;;;;;;5021687;28;20684;-71
2023/06/08 02:21:10;;;;;;;14.00;7.07;;;;;;;;;;5018535;28;20420;-71
2023/06/08 02:23:35;;;;;;;18.17;8.00;;;;;;;;;;5020880;28;20179;-71
2023/06/08 02:26:01;;;;;;;11.10;6.70;;;;;;;;;;5016659;28;20187;-71
2023/06/08 02:28:26;;;;;;;16.43;7.33;;;;;;;;;;5014661;28;20179;-71
2023/06/08 02:30:51;;;;;;;14.70;7.03;;;;;;;;;;5017509;28;20277;-70
2023/06/08 02:33:17;;;;;;;11.87;6.77;;;;;;;;;;5030957;28;20198;-70
2023/06/08 02:35:42;;;;;;;21.57;8.03;;;;;;;;;;5019236;28;20237;-70
2023/06/08 02:38:07;;;;;;;14.57;7.33;;;;;;;;;;5028516;28;20166;-71
2023/06/08 02:40:32;;;;;;;10.17;7.23;;;;;;;;;;5023824;28;20210;-70
2023/06/08 02:42:58;;;;;;;13.60;7.13;;;;;;;;;;5021336;28;20187;-71
2023/06/08 02:45:23;;;;;;;14.37;7.77;;;;;;;;;;5023082;28;20657;-71
2023/06/08 02:47:49;;;;;;;16.63;8.70;;;;;;;;;;5027266;28;20683;-70
2023/06/08 02:50:14;;;;;;;19.43;8.63;;;;;;;;;;5028033;28;20255;-71
2023/06/08 02:52:39;;;;;;;18.33;8.10;;;;;;;;;;5028481;28;20198;-71
2023/06/08 02:55:05;;;;;;;16.30;8.30;;;;;;;;;;5030863;28;20174;-70
2023/06/08 02:57:32;;;;;;;17.63;9.23;;;;;;;;;;5030598;28;20179;-70
2023/06/08 02:59:57;;;;;;;20.40;8.53;;;;;;;;;;5023661;28;20264;-71
2023/06/08 03:02:22;;;;;;;11.37;6.97;;;;;;;;;;5023709;28;20650;-70
2023/06/08 03:04:48;;;;;;;15.87;8.63;;;;;;;;;;5027884;28;20681;-70
2023/06/08 03:07:17;;;;;;;12.20;7.70;;;;;;;;;;5028272;28;20601;-70
2023/06/08 03:09:42;;;;;;;16.00;8.10;;;;;;;;;;5024376;28;20889;-70
2023/06/08 03:12:09;;;;;;;18.90;8.90;;;;;;;;;;5029785;28;20293;-71
2023/06/08 03:14:35;;;;;;;16.93;9.27;;;;;;;;;;5022813;28;20210;-71
2023/06/08 03:17:02;;;;;;;19.10;8.80;;;;;;;;;;5019735;28;20206;-71
2023/06/08 03:19:30;;;;;;;20.67;9.37;;;;;;;;;;5022855;28;20284;-71
2023/06/08 03:21:57;;;;;;;17.53;9.00;;;;;;;;;;5030669;28;20179;-71
2023/06/08 03:24:23;;;;;;;14.97;8.70;;;;;;;;;;5028666;28;20664;-70
2023/06/08 03:26:48;;;;;;;13.80;7.90;;;;;;;;;;5020789;28;20183;-70
2023/06/08 03:29:13;;;;;;;19.27;9.17;;;;;;;;;;5021658;28;20718;-71
2023/06/08 03:31:38;;;;;;;19.77;9.10;;;;;;;;;;5023144;28;20191;-71
2023/06/08 03:34:04;;;;;;;20.10;9.03;;;;;;;;;;5019682;28;20256;-71
2023/06/08 03:36:33;;;;;;;16.20;9.43;;;;;;;;;;5028360;28;20205;-71
2023/06/08 03:38:59;;;;;;;15.27;9.00;;;;;;;;;;5023890;28;20202;-71
2023/06/08 03:41:24;;;;;;;18.60;9.67;;;;;;;;;;5034452;28;20179;-70
2023/06/08 03:43:50;;;;;;;17.53;8.57;;;;;;;;;;5023072;28;20560;-70
2023/06/08 03:46:15;;;;;;;15.07;8.60;;;;;;;;;;5022658;28;20193;-71
2023/06/08 03:48:40;;;;;;;19.03;9.83;;;;;;;;;;5028130;28;20198;-70
2023/06/08 03:51:05;;;;;;;17.50;9.63;;;;;;;;;;5023814;28;20604;-70
2023/06/08 03:53:30;;;;;;;16.83;8.77;;;;;;;;;;5025433;28;20233;-71
2023/06/08 03:55:56;;;;;;;15.45;8.60;;;;;;;;;;5043757;28;20261;-70
2023/06/08 03:58:21;;;;;;;14.48;8.40;;;;;;;;;;5030251;28;20171;-70
2023/06/08 04:00:49;;;;;;;21.87;9.83;;;;;;;;;;5024331;28;20534;-70
2023/06/08 04:03:14;;;;;;;18.23;9.10;;;;;;;;;;5022183;28;20174;-71
2023/06/08 04:05:39;;;;;;;15.52;8.95;;;;;;;;;;5024231;28;20236;-71
2023/06/08 04:08:04;;;;;;;19.40;7.97;;;;;;;;;;5023678;28;20224;-71
2023/06/08 04:10:30;;;;;;;14.95;8.52;;;;;;;;;;5013687;28;20215;-70
2023/06/08 04:12:55;;;;;;;16.63;8.13;;;;;;;;;;5019886;28;20203;-71
2023/06/08 04:15:20;;;;;;;21.00;8.57;;;;;;;;;;5025571;28;20209;-71
2023/06/08 04:17:48;;;;;;;12.55;7.82;;;;;;;;;;5020404;28;20183;-71
2023/06/08 04:20:13;;;;;;;15.02;8.75;;;;;;;;;;5025352;28;20202;-71
2023/06/08 04:22:38;;;;;;;14.98;7.78;;;;;;;;;;5027133;28;20185;-71
2023/06/08 04:25:03;;;;;;;16.40;7.82;;;;;;;;;;5028048;28;20809;-71
2023/06/08 04:27:29;;;;;;;10.57;7.28;;;;;;;;;;5024677;28;20185;-71
2023/06/08 04:29:54;;;;;;;12.02;7.93;;;;;;;;;;5022560;28;20734;-70
2023/06/08 04:32:19;;;;;;;14.60;7.68;;;;;;;;;;5029535;28;20519;-71
2023/06/08 04:34:45;;;;;;;15.63;8.32;;;;;;;;;;5018803;28;20203;-71
2023/06/08 04:37:11;;;;;;;13.77;7.72;;;;;;;;;;5023983;28;20174;-71
2023/06/08 04:39:36;;;;;;;13.48;7.50;;;;;;;;;;5026610;28;20203;-71
2023/06/08 04:42:02;;;;;;;12.98;7.80;;;;;;;;;;5024680;28;20170;-71
2023/06/08 04:44:33;;;;;;;14.20;8.05;;;;;;;;;;5025522;28;20649;-71
2023/06/08 04:46:59;;;;;;;15.60;7.75;;;;;;;;;;5030634;28;20175;-70
2023/06/08 04:49:30;;;;;;;15.77;7.82;;;;;;;;;;5016603;28;20206;-71
2023/06/08 04:51:56;;;;;;;13.15;8.23;;;;;;;;;;5023369;28;20778;-71
2023/06/08 04:54:23;;;;;;;17.23;8.43;;;;;;;;;;5013980;28;20203;-70
2023/06/08 04:56:48;;;;;;;14.88;7.93;;;;;;;;;;5021827;28;20630;-70
2023/06/08 04:59:13;;;;;;;12.82;7.03;;;;;;;;;;5028713;28;20273;-70
2023/06/08 05:01:38;;;;;;;11.35;7.57;;;;;;;;;;5019151;28;20189;-70
2023/06/08 05:04:07;;;;;;;18.65;8.13;;;;;;;;;;5027399;28;20174;-70
2023/06/08 05:06:33;;;;;;;19.45;9.25;;;;;;;;;;5030100;28;20175;-71
2023/06/08 05:08:58;;;;;;;12.57;8.60;;;;;;;;;;5022525;28;20220;-70
2023/06/08 05:11:23;;;;;;;15.05;8.65;;;;;;;;;;5030920;28;20244;-70
2023/06/08 05:13:48;;;;;;;16.80;8.45;;;;;;;;;;5023217;28;20247;-70
2023/06/08 05:16:15;;;;;;;13.55;8.60;;;;;;;;;;5021879;28;20182;-70
2023/06/08 05:18:40;;;;;;;15.02;8.50;;;;;;;;;;5023970;28;20202;-70
2023/06/08 05:21:05;;;;;;;12.85;7.60;;;;;;;;;;5012497;28;20183;-70
2023/06/08 05:23:30;;;;;;;11.82;7.32;;;;;;;;;;5024203;28;20252;-70
2023/06/08 05:25:56;;;;;;;17.42;8.20;;;;;;;;;;5014326;28;20186;-70
2023/06/08 05:28:21;;;;;;;14.77;8.02;;;;;;;;;;5021710;28;20678;-70
2023/06/08 05:30:46;;;;;;;16.33;8.38;;;;;;;;;;5015834;28;20254;-70
2023/06/08 05:33:11;;;;;;;14.23;7.70;;;;;;;;;;5016357;28;20249;-70
2023/06/08 05:35:36;;;;;;;15.80;8.25;;;;;;;;;;5015607;28;20171;-70
2023/06/08 05:38:02;;;;;;;12.60;7.53;;;;;;;;;;5010865;28;20198;-71
2023/06/08 05:40:27;;;;;;;13.68;7.82;;;;;;;;;;5011196;28;20264;-70
2023/06/08 05:42:52;;;;;;;17.05;7.30;;;;;;;;;;5015337;28;20185;-70
2023/06/08 05:45:17;;;;;;;15.30;8.10;;;;;;;;;;5028624;28;20186;-70
2023/06/08 05:47:43;;;;;;;17.77;8.63;;;;;;;;;;5018802;28;20190;-75
2023/06/08 05:50:08;;;;;;;16.83;8.77;;;;;;;;;;5026630;28;20202;-70
2023/06/08 05:52:33;;;;;;;15.18;7.55;;;;;;;;;;5025951;28;20252;-71
2023/06/08 05:55:00;;;;;;;14.23;7.65;;;;;;;;;;5015898;28;20289;-71
2023/06/08 05:57:25;;;;;;;12.38;6.78;;;;;;;;;;5012914;28;20178;-71
2023/06/08 05:59:50;;;;;;;13.52;7.28;;;;;;;;;;5032073;28;20269;-71
2023/06/08 06:02:16;;;;;;;10.15;6.90;;;;;;;;;;5025938;28;20178;-71
2023/06/08 06:04:41;;;;;;;13.20;7.22;;;;;;;;;;5036772;28;20225;-71
2023/06/08 06:07:07;;;;;;;13.52;7.03;;;;;;;;;;5034064;28;20523;-71
2023/06/08 06:09:32;;;;;;;12.73;6.55;;;;;;;;;;5033961;28;20260;-70
2023/06/08 06:11:57;;;;;;;17.40;9.40;;;;;;;;;;5014883;28;20663;-70
2023/06/08 06:14:22;;;;;;;12.48;7.22;;;;;;;;;;5021384;28;20205;-70
2023/06/08 06:16:48;;;;;;;11.93;6.95;;;;;;;;;;5029104;28;20262;-70
2023/06/08 06:19:13;;;;;;;16.23;6.60;;;;;;;;;;5023076;28;20198;-70
2023/06/08 06:21:38;;;;;;;10.00;6.10;;;;;;;;;;5029496;28;20593;-70
2023/06/08 06:24:03;;;;;;;13.80;7.78;;;;;;;;;;5028694;28;20297;-70
2023/06/08 06:26:29;;;;;;;10.35;6.25;;;;;;;;;;5028771;28;20183;-70
2023/06/08 06:28:54;;;;;;;11.75;7.15;;;;;;;;;;5020969;28;20751;-71
2023/06/08 06:31:19;;;;;;;13.40;6.38;;;;;;;;;;5024082;28;20208;-70
2023/06/08 06:33:44;;;;;;;10.73;6.45;;;;;;;;;;5027569;28;20198;-70
2023/06/08 06:36:10;;;;;;;11.02;6.05;;;;;;;;;;5021966;28;20242;-70
2023/06/08 06:38:35;;;;;;;8.05;5.20;;;;;;;;;;5020594;28;20696;-70
2023/06/08 06:41:00;;;;;;;8.90;5.47;;;;;;;;;;5024030;28;20669;-70
2023/06/08 06:43:25;;;;;;;9.77;5.75;;;;;;;;;;5017227;28;20568;-70
2023/06/08 06:45:51;;;;;;;9.38;5.80;;;;;;;;;;5022787;28;20178;-69
2023/06/08 06:48:18;;;;;;;7.53;5.45;;;;;;;;;;5023742;28;20182;-70
2023/06/08 06:50:44;;;;;;;8.05;5.55;;;;;;;;;;5020151;28;20672;-69
2023/06/08 06:53:09;;;;;;;9.85;5.47;;;;;;;;;;5029792;28;20218;-70
2023/06/08 06:55:35;;;;;;;7.35;5.25;;;;;;;;;;5035853;28;20209;-70
2023/06/08 06:58:00;;;;;;;9.05;4.97;;;;;;;;;;5030890;28;20182;-68
2023/06/08 07:00:26;;;;;;;6.75;5.10;;;;;;;;;;5030741;28;20201;-70
2023/06/08 07:02:51;;;;;;;10.05;5.65;;;;;;;;;;5033427;28;20182;-69
2023/06/08 07:05:17;;;;;;;9.05;5.30;;;;;;;;;;5037097;28;20193;-69
2023/06/08 07:07:43;;;;;;;9.30;4.88;;;;;;;;;;5033068;28;20213;-69
2023/06/08 07:10:08;;;;;;;8.50;4.75;;;;;;;;;;5028478;28;20238;-69
2023/06/08 07:12:34;;;;;;;7.22;4.97;;;;;;;;;;5031766;28;20298;-70
2023/06/08 07:14:59;;;;;;;7.47;4.70;;;;;;;;;;5026582;28;20178;-69
2023/06/08 07:17:24;;;;;;;8.02;4.63;;;;;;;;;;5031825;28;20174;-69
2023/06/08 07:19:51;;;;;;;8.27;4.78;;;;;;;;;;5033367;28;20265;-70
2023/06/08 07:22:16;;;;;;;8.50;4.55;;;;;;;;;;5032584;28;20542;-70
2023/06/08 07:24:42;;;;;;;11.35;4.75;;;;;;;;;;5034568;28;20189;-69
2023/06/08 07:27:07;;;;;;;15.30;4.73;;;;;;;;;;5031341;28;20690;-70
2023/06/08 07:29:33;;;;;;;9.48;4.85;;;;;;;;;;5033027;28;20423;-69
2023/06/08 07:31:58;;;;;;;9.70;4.75;;;;;;;;;;5026810;28;20703;-69
2023/06/08 07:34:25;;;;;;;8.73;4.70;;;;;;;;;;5028844;28;20230;-70
2023/06/08 07:36:50;;;;;;;7.10;4.68;;;;;;;;;;5032775;28;20482;-69
2023/06/08 07:39:15;;;;;;;9.60;5.23;;;;;;;;;;5031463;28;20293;-70
2023/06/08 07:41:40;;;;;;;8.53;4.80;;;;;;;;;;5031165;28;20446;-69
2023/06/08 07:44:05;;;;;;;9.10;5.07;;;;;;;;;;5032789;28;20465;-70
2023/06/08 07:46:31;;;;;;;6.50;4.25;;;;;;;;;;5033319;28;20427;-70
2023/06/08 07:48:56;;;;;;;14.48;5.43;;;;;;;;;;5029883;28;20293;-70
2023/06/08 07:51:21;;;;;;;6.93;4.60;;;;;;;;;;5024956;28;20265;-70
2023/06/08 07:53:47;;;;;;;5.72;4.70;;;;;;;;;;5032052;28;20827;-70
2023/06/08 07:56:12;;;;;;;7.20;4.90;;;;;;;;;;5032694;28;20159;-70
2023/06/08 07:58:37;;;;;;;9.50;5.35;;;;;;;;;;5030617;28;20197;-69
2023/06/08 08:01:02;;;;;;;8.10;4.82;;;;;;;;;;5029529;28;20199;-70
2023/06/08 08:03:28;;;;;;;10.15;5.35;;;;;;;;;;5034952;28;20640;-70
2023/06/08 08:05:53;;;;;;;11.30;4.80;;;;;;;;;;5034949;28;20210;-69
2023/06/08 08:08:19;;;;;;;6.27;5.00;;;;;;;;;;5032153;28;20177;-70
2023/06/08 08:10:44;;;;;;;8.77;5.30;;;;;;;;;;5029372;28;20951;-70
2023/06/08 08:13:11;;;;;;;10.25;5.15;;;;;;;;;;5023726;28;20198;-69
2023/06/08 08:15:37;;;;;;;10.50;5.28;;;;;;;;;;5027916;28;20599;-70
2023/06/08 08:18:02;;;;;;;9.07;4.85;;;;;;;;;;5030575;28;20178;-70
2023/06/08 08:20:27;;;;;;;7.68;4.65;;;;;;;;;;5031923;28;20209;-70
2023/06/08 08:22:52;;;;;;;7.27;4.77;;;;;;;;;;5029146;28;20213;-70
2023/06/08 08:25:18;;;;;;;6.78;5.07;;;;;;;;;;5034910;28;20783;-70
2023/06/08 08:27:43;;;;;;;9.65;4.78;;;;;;;;;;5030620;28;20220;-70
2023/06/08 08:30:08;;;;;;;8.13;5.07;;;;;;;;;;5029875;28;20581;-70
2023/06/08 08:32:33;;;;;;;12.88;5.72;;;;;;;;;;5030126;28;20459;-72
2023/06/08 08:34:59;;;;;;;11.50;5.45;;;;;;;;;;5025572;28;20166;-70
2023/06/08 08:37:24;;;;;;;11.00;5.50;;;;;;;;;;5030277;28;20504;-70
2023/06/08 08:39:49;;;;;;;10.00;5.22;;;;;;;;;;5031667;28;20277;-70
2023/06/08 08:42:22;;;;;;;7.93;4.93;;;;;;;;;;5032304;28;20173;-70
2023/06/08 08:44:49;;;;;;;10.25;4.95;;;;;;;;;;5031826;28;20434;-69
2023/06/08 08:47:14;;;;;;;8.18;5.03;;;;;;;;;;5029075;28;20644;-70
2023/06/08 08:49:42;;;;;;;8.63;5.78;;;;;;;;;;5025650;28;20230;-69
2023/06/08 08:52:08;;;;;;;10.95;5.00;;;;;;;;;;5029205;28;20174;-71
2023/06/08 08:54:34;;;;;;;7.13;4.72;;;;;;;;;;5025079;28;20632;-71
2023/06/08 08:57:00;;;;;;;9.23;5.78;;;;;;;;;;5026397;28;20194;-70
2023/06/08 08:59:28;;;;;;;6.35;4.30;;;;;;;;;;5025546;28;20198;-70
2023/06/08 09:01:54;;;;;;;8.13;5.15;;;;;;;;;;5025655;28;20187;-70
2023/06/08 09:04:19;;;;;;;12.13;5.28;;;;;;;;;;5027331;28;20217;-70
2023/06/08 09:06:47;;;;;;;9.63;5.07;;;;;;;;;;5030060;28;20616;-69
2023/06/08 09:09:13;;;;;;;10.90;5.25;;;;;;;;;;5030671;28;20221;-70
2023/06/08 09:11:55;;;;;;;9.65;5.90;;;;;;;;;;5024939;28;20206;-70
2023/06/08 09:14:20;;;;;;;10.30;5.40;;;;;;;;;;5027962;28;20253;-71
2023/06/08 09:16:45;;;;;;;11.67;5.40;;;;;;;;;;5029156;28;20716;-70
2023/06/08 09:19:11;;;;;;;7.38;4.28;;;;;;;;;;5029103;28;20455;-70
2023/06/08 09:21:36;;;;;;;7.60;5.07;;;;;;;;;;5031289;28;20166;-70
2023/06/08 09:24:08;;;;;;;10.88;5.00;;;;;;;;;;5032760;28;20180;-71
2023/06/08 09:26:33;;;;;;;10.07;4.72;;;;;;;;;;5028440;28;20174;-70
2023/06/08 09:29:00;;;;;;;9.52;5.30;;;;;;;;;;5030962;28;20194;-71
2023/06/08 09:31:28;;;;;;;9.02;5.28;;;;;;;;;;5026108;28;20526;-70
2023/06/08 09:34:03;;;;;;;7.10;4.78;;;;;;;;;;5021098;28;20278;-71
2023/06/08 09:36:28;;;;;;;8.88;4.70;;;;;;;;;;5021900;28;20178;-70
2023/06/08 09:38:57;;;;;;;7.93;5.10;;;;;;;;;;5030849;28;20705;-71
2023/06/08 09:41:22;;;;;;;10.35;4.85;;;;;;;;;;5024247;28;20178;-70
2023/06/08 09:43:48;;;;;;;9.65;5.15;;;;;;;;;;5030877;28;20174;-70
2023/06/08 09:46:31;;;;;;;12.55;6.38;;;;;;;;;;5032470;28;20181;-70
2023/06/08 09:48:56;;;;;;;6.90;4.78;;;;;;;;;;5030874;28;20190;-71
2023/06/08 09:51:23;;;;;;;12.03;4.87;;;;;;;;;;5024800;28;20549;-70
2023/06/08 09:53:52;;;;;;;7.20;4.95;;;;;;;;;;5030533;28;20821;-71
2023/06/08 09:56:17;;;;;;;17.17;5.72;;;;;;;;;;5030359;28;20178;-70
2023/06/08 09:58:44;;;;;;;7.25;4.32;;;;;;;;;;5024671;28;20208;-70
2023/06/08 10:01:11;;;;;;;9.52;5.18;;;;;;;;;;5030546;28;20662;-71
2023/06/08 10:03:38;;;;;;;6.43;4.40;;;;;;;;;;5034062;28;20571;-70
2023/06/08 10:06:05;;;;;;;8.57;6.13;;;;;;;;;;5032903;28;20182;-70
2023/06/08 10:08:31;;;;;;;8.10;4.47;;;;;;;;;;5028331;28;20182;-70
2023/06/08 10:10:57;;;;;;;8.40;5.03;;;;;;;;;;5021750;28;20269;-70
2023/06/08 10:13:22;;;;;;;7.68;5.35;;;;;;;;;;5031825;28;20281;-69
2023/06/08 10:15:47;;;;;;;8.23;4.97;;;;;;;;;;5033637;28;20166;-73
2023/06/08 10:18:13;;;;;;;9.27;4.90;;;;;;;;;;5031763;28;20210;-71
2023/06/08 10:20:39;;;;;;;7.45;5.18;;;;;;;;;;5034343;28;20209;-69
2023/06/08 10:23:05;;;;;;;8.00;5.05;;;;;;;;;;5034225;28;20182;-70
2023/06/08 10:25:33;;;;;;;6.50;4.88;;;;;;;;;;5034467;28;20244;-70
2023/06/08 10:28:05;;;;;;;7.43;4.75;;;;;;;;;;5030906;28;20286;-70
2023/06/08 10:30:33;;;;;;;10.27;4.57;;;;;;;;;;5031812;28;20264;-70
2023/06/08 10:33:09;;;;;;;5.47;4.10;;;;;;;;;;5034353;28;20202;-71
2023/06/08 10:35:35;;;;;;;8.75;5.05;;;;;;;;;;5034291;28;20174;-70
2023/06/08 10:38:13;;;;;;;7.18;4.93;;;;;;;;;;5034566;28;20232;-70
2023/06/08 10:40:42;;;;;;;8.38;4.80;;;;;;;;;;5031680;28;20166;-70
2023/06/08 10:43:08;;;;;;;9.05;4.97;;;;;;;;;;5032321;28;20182;-70
2023/06/08 10:45:36;;;;;;;9.25;4.78;;;;;;;;;;5035793;28;20213;-71
2023/06/08 10:48:02;;;;;;;11.98;5.03;;;;;;;;;;5033864;28;20178;-70
2023/06/08 10:50:30;;;;;;;7.35;4.60;;;;;;;;;;5027583;28;20280;-70
2023/06/08 10:52:58;;;;;;;9.07;4.13;;;;;;;;;;5032812;28;20208;-70
2023/06/08 10:55:25;;;;;;;9.27;4.70;;;;;;;;;;5028880;28;20559;-71
2023/06/08 10:57:52;;;;;;;10.52;4.47;;;;;;;;;;5033451;28;20178;-70
2023/06/08 11:00:20;;;;;;;10.68;4.88;;;;;;;;;;5033567;28;20202;-70
2023/06/08 11:02:46;;;;;;;7.13;4.10;;;;;;;;;;5033567;28;20268;-70
2023/06/08 11:05:12;;;;;;;7.65;3.95;;;;;;;;;;5032532;28;20573;-71
2023/06/08 11:07:37;;;;;;;9.23;4.15;;;;;;;;;;5032851;28;20238;-70
2023/06/08 11:10:03;;;;;;;7.22;3.78;;;;;;;;;;5033364;28;20234;-70
2023/06/08 11:12:28;;;;;;;6.05;3.78;;;;;;;;;;5033752;28;20185;-71
2023/06/08 11:14:53;;;;;;;7.27;4.10;;;;;;;;;;5029053;28;20174;-70
2023/06/08 11:17:19;;;;;;;9.45;5.10;;;;;;;;;;5032697;28;20695;-71
2023/06/08 11:19:44;;;;;;;8.87;4.17;;;;;;;;;;5032892;28;20269;-70
2023/06/08 11:22:09;;;;;;;5.97;3.83;;;;;;;;;;5035661;28;20170;-70
2023/06/08 11:24:34;;;;;;;6.60;4.40;;;;;;;;;;5035664;28;20182;-70
2023/06/08 11:27:00;;;;;;;6.30;4.05;;;;;;;;;;5031450;28;20908;-70
2023/06/08 11:29:26;;;;;;;5.97;4.10;;;;;;;;;;5025209;28;20191;-70
2023/06/08 11:31:52;;;;;;;8.82;4.85;;;;;;;;;;5027139;28;20175;-68
2023/06/08 11:34:18;;;;;;;8.45;5.00;;;;;;;;;;5031634;28;20284;-69
2023/06/08 11:36:43;;;;;;;9.02;4.60;;;;;;;;;;5026915;28;20179;-69
2023/06/08 11:39:11;;;;;;;7.28;4.35;;;;;;;;;;5031766;28;20201;-69
2023/06/08 11:41:36;;;;;;;5.68;4.40;;;;;;;;;;5031178;28;20289;-69
2023/06/08 11:44:01;;;;;;;8.60;4.88;;;;;;;;;;5032731;28;20636;-70
2023/06/08 11:46:28;;;;;;;8.88;4.55;;;;;;;;;;5035283;28;20219;-69
2023/06/08 11:49:02;;;;;;;9.40;4.07;;;;;;;;;;5030256;28;20202;-69
2023/06/08 11:51:27;;;;;;;7.43;4.93;;;;;;;;;;5024669;28;20176;-69
2023/06/08 11:53:53;;;;;;;5.32;3.97;;;;;;;;;;5032128;28;20198;-70
2023/06/08 11:56:18;;;;;;;8.90;4.40;;;;;;;;;;5031538;28;20237;-69
2023/06/08 11:58:45;;;;;;;8.77;4.38;;;;;;;;;;5032723;28;20236;-71
2023/06/08 12:01:13;;;;;;;7.90;4.47;;;;;;;;;;5032334;28;20171;-69
2023/06/08 12:03:45;;;;;;;5.72;4.10;;;;;;;;;;5030075;28;20170;-69
2023/06/08 12:06:12;;;;;;;8.55;3.95;;;;;;;;;;5032891;28;20240;-70
2023/06/08 12:08:38;;;;;;;7.70;4.22;;;;;;;;;;5031400;28;20205;-69
2023/06/08 12:11:10;;;;;;;5.95;4.07;;;;;;;;;;5065004;23;20252;-77
2023/06/08 12:13:38;;;;;;;7.78;4.05;;;;;;;;;;5036527;28;20209;-76
2023/06/08 12:16:05;;;;;;;5.88;4.18;;;;;;;;;;5053645;28;20683;-77
2023/06/08 12:18:36;;;;;;;6.65;3.92;;;;;;;;;;5054080;28;20182;-76
2023/06/08 12:21:03;;;;;;;10.15;3.90;;;;;;;;;;5052951;28;20204;-77
2023/06/08 12:23:28;;;;;;;7.15;3.65;;;;;;;;;;5053981;28;20608;-77
2023/06/08 12:25:53;;;;;;;6.73;4.00;;;;;;;;;;5059537;28;20207;-77
2023/06/08 12:28:19;;;;;;;7.70;4.43;;;;;;;;;;5054436;28;20248;-77
2023/06/08 12:30:44;;;;;;;5.78;4.10;;;;;;;;;;5054049;28;20502;-77
2023/06/08 12:33:17;;;;;;;5.32;3.53;;;;;;;;;;5052917;28;20201;-78
2023/06/08 12:35:42;;;;;;;5.97;3.35;;;;;;;;;;5037449;28;20177;-76
2023/06/08 12:38:07;;;;;;;6.68;3.70;;;;;;;;;;5052568;28;20268;-77
2023/06/08 12:40:33;;;;;;;7.60;4.20;;;;;;;;;;5036150;28;20567;-78
2023/06/08 12:42:58;;;;;;;5.53;4.03;;;;;;;;;;5056525;28;20181;-78
2023/06/08 12:45:23;;;;;;;7.60;4.50;;;;;;;;;;5039834;28;20465;-76
2023/06/08 12:47:49;;;;;;;12.55;4.15;;;;;;;;;;5052265;28;20413;-76
2023/06/08 12:50:17;;;;;;;8.32;3.92;;;;;;;;;;5034086;28;20193;-76
2023/06/08 12:52:42;;;;;;;4.15;3.28;;;;;;;;;;5053468;28;20192;-76
2023/06/08 12:55:08;;;;;;;8.50;4.32;;;;;;;;;;5053248;28;20174;-77
2023/06/08 12:57:34;;;;;;;6.95;3.60;;;;;;;;;;5049490;28;20177;-77
2023/06/08 12:59:59;;;;;;;5.95;3.95;;;;;;;;;;5055443;28;20276;-77
2023/06/08 13:02:29;;;;;;;4.85;2.83;;;;;;;;;;5052272;28;20627;-76
2023/06/08 13:04:54;;;;;;;7.30;4.35;;;;;;;;;;5055175;28;20253;-76
2023/06/08 13:07:19;;;;;;;7.22;4.07;;;;;;;;;;5053523;28;20659;-76
2023/06/08 13:09:45;;;;;;;6.63;3.80;;;;;;;;;;5034509;28;20209;-76
2023/06/08 13:12:10;;;;;;;4.57;3.37;;;;;;;;;;5047770;28;20192;-76
2023/06/08 13:14:35;;;;;;;4.55;3.13;;;;;;;;;;5052485;28;20201;-76
2023/06/08 13:17:01;;;;;;;4.77;3.73;;;;;;;;;;5052223;28;20659;-76
2023/06/08 13:19:27;;;;;;;6.50;3.42;;;;;;;;;;5051985;28;20427;-76
2023/06/08 13:21:53;;;;;;;7.30;4.05;;;;;;;;;;5054670;28;20205;-77
2023/06/08 13:24:18;;;;;;;8.05;3.53;;;;;;;;;;5052155;28;20174;-76
2023/06/08 13:26:44;;;;;;;5.88;3.72;;;;;;;;;;5052464;28;20170;-76
2023/06/08 13:29:09;;;;;;;6.57;3.72;;;;;;;;;;5052025;28;20193;-76
2023/06/08 13:31:35;;;;;;;7.57;3.55;;;;;;;;;;5033754;28;20180;-75
2023/06/08 13:34:01;;;;;;;5.15;3.70;;;;;;;;;;5051307;28;20196;-76
2023/06/08 13:36:27;;;;;;;5.38;3.50;;;;;;;;;;5050604;28;20598;-76
2023/06/08 13:38:52;;;;;;;9.15;3.65;;;;;;;;;;5052380;28;20291;-76
2023/06/08 13:41:17;;;;;;;7.05;3.10;;;;;;;;;;5052263;28;20209;-76
2023/06/08 13:43:44;;;;;;;5.07;3.40;;;;;;;;;;5034001;28;20185;-76
2023/06/08 13:46:09;;;;;;;6.30;3.30;;;;;;;;;;5055546;28;20184;-76
2023/06/08 13:48:35;;;;;;;3.97;3.23;;;;;;;;;;5054987;28;20539;-76
2023/06/08 13:51:00;;;;;;;6.00;3.83;;;;;;;;;;5055237;28;20476;-76
2023/06/08 13:53:26;;;;;;;8.93;3.40;;;;;;;;;;5057585;28;20197;-76
2023/06/08 13:55:51;;;;;;;8.25;3.72;;;;;;;;;;5054860;28;20173;-76
2023/06/08 13:58:16;;;;;;;8.50;3.53;;;;;;;;;;5037722;28;20204;-76
2023/06/08 14:00:41;;;;;;;8.75;4.20;;;;;;;;;;5038059;28;20659;-76
2023/06/08 14:03:07;;;;;;;8.43;4.13;;;;;;;;;;5056550;28;20176;-77
2023/06/08 14:05:32;;;;;;;6.50;3.37;;;;;;;;;;5065211;28;20406;-77
2023/06/08 14:07:57;;;;;;;6.15;2.92;;;;;;;;;;5039115;28;20187;-77
2023/06/08 14:10:22;;;;;;;6.97;3.60;;;;;;;;;;5056523;28;20208;-76
2023/06/08 14:12:48;;;;;;;5.60;3.70;;;;;;;;;;5054535;28;20549;-76
2023/06/08 14:15:15;;;;;;;7.63;3.67;;;;;;;;;;5055233;28;20806;-77
2023/06/08 14:17:40;;;;;;;5.60;3.20;;;;;;;;;;5055935;28;20176;-76
2023/06/08 14:20:06;;;;;;;5.32;3.90;;;;;;;;;;5058795;28;20208;-78
2023/06/08 14:22:31;;;;;;;8.65;4.18;;;;;;;;;;5058065;28;20169;-77
2023/06/08 14:24:56;;;;;;;11.80;3.37;;;;;;;;;;5059920;28;20336;-78
2023/06/08 14:27:21;;;;;;;9.50;3.10;;;;;;;;;;5056270;28;20481;-78
2023/06/08 14:29:46;;;;;;;7.40;2.70;;;;;;;;;;5054251;28;20193;-77